sensor_id;sensor_type;location;lat;lon;timestamp;temperature;humidity
41168;DHT22;26906;45.658;9.272;2023-03-19T06:17:35;8.50;99.90
41168;DHT22;26906;45.658;9.272;2023-03-19T06:20:05;8.60;99.90
41168;DHT22;26906;45.658;9.272;2023-03-19T06:22:30;8.70;99.90
41168;DHT22;26906;45.658;9.272;2023-03-19T06:24:56;9.00;99.90
41168;DHT22;26906;45.658;9.272;2023-03-19T06:27:22;9.20;99.90
41168;DHT22;26906;45.658;9.272;2023-03-19T06:29:49;9.30;99.90
41168;DHT22;26906;45.658;9.272;2023-03-19T06:32:20;9.40;99.90
41168;DHT22;26906;45.658;9.272;2023-03-19T06:34:48;9.60;99.90
41168;DHT22;26906;45.658;9.272;2023-03-19T06:37:14;9.70;99.90
41168;DHT22;26906;45.658;9.272;2023-03-19T06:39:40;9.90;99.90
41168;DHT22;26906;45.658;9.272;2023-03-19T06:42:05;9.90;99.90
41168;DHT22;26906;45.658;9.272;2023-03-19T06:44:38;9.90;99.90
41168;DHT22;26906;45.658;9.272;2023-03-19T06:47:04;10.00;99.90
41168;DHT22;26906;45.658;9.272;2023-03-19T06:49:30;10.00;99.90
41168;DHT22;26906;45.658;9.272;2023-03-19T06:51:56;10.20;99.90
41168;DHT22;26906;45.658;9.272;2023-03-19T06:54:22;10.30;99.90
41168;DHT22;26906;45.658;9.272;2023-03-19T06:56:48;10.50;99.90
41168;DHT22;26906;45.658;9.272;2023-03-19T06:59:13;10.60;99.90
41168;DHT22;26906;45.658;9.272;2023-03-19T07:01:40;10.80;99.90
41168;DHT22;26906;45.658;9.272;2023-03-19T07:04:07;11.10;99.90
41168;DHT22;26906;45.658;9.272;2023-03-19T07:06:33;11.30;99.90
41168;DHT22;26906;45.658;9.272;2023-03-19T07:08:59;11.40;99.90
41168;DHT22;26906;45.658;9.272;2023-03-19T07:11:25;11.40;99.90
41168;DHT22;26906;45.658;9.272;2023-03-19T07:13:51;11.50;99.90
41168;DHT22;26906;45.658;9.272;2023-03-19T07:16:17;11.60;99.90
41168;DHT22;26906;45.658;9.272;2023-03-19T07:18:45;11.80;99.90
41168;DHT22;26906;45.658;9.272;2023-03-19T07:21:14;12.00;99.90
41168;DHT22;26906;45.658;9.272;2023-03-19T07:23:39;12.10;99.90
41168;DHT22;26906;45.658;9.272;2023-03-19T07:26:06;12.30;99.90
41168;DHT22;26906;45.658;9.272;2023-03-19T07:28:31;12.20;99.90
41168;DHT22;26906;45.658;9.272;2023-03-19T07:30:57;12.30;99.90
41168;DHT22;26906;45.658;9.272;2023-03-19T07:33:23;12.40;99.90
41168;DHT22;26906;45.658;9.272;2023-03-19T07:35:48;12.60;99.90
41168;DHT22;26906;45.658;9.272;2023-03-19T07:38:15;13.00;99.90
41168;DHT22;26906;45.658;9.272;2023-03-19T07:40:41;13.10;99.90
41168;DHT22;26906;45.658;9.272;2023-03-19T07:43:07;13.20;99.90
41168;DHT22;26906;45.658;9.272;2023-03-19T07:45:32;13.40;99.90
41168;DHT22;26906;45.658;9.272;2023-03-19T07:48:01;13.70;99.90
41168;DHT22;26906;45.658;9.272;2023-03-19T07:50:31;13.80;99.90
41168;DHT22;26906;45.658;9.272;2023-03-19T07:52:59;13.90;99.90
41168;DHT22;26906;45.658;9.272;2023-03-19T07:55:25;14.00;99.90
41168;DHT22;26906;45.658;9.272;2023-03-19T07:57:51;14.30;99.90
41168;DHT22;26906;45.658;9.272;2023-03-19T08:00:17;14.50;99.90
41168;DHT22;26906;45.658;9.272;2023-03-19T08:02:43;14.60;99.90
41168;DHT22;26906;45.658;9.272;2023-03-19T08:05:09;14.60;99.90
41168;DHT22;26906;45.658;9.272;2023-03-19T08:07:35;14.80;99.90
41168;DHT22;26906;45.658;9.272;2023-03-19T08:10:02;14.90;99.90
41168;DHT22;26906;45.658;9.272;2023-03-19T08:12:28;15.10;99.90
41168;DHT22;26906;45.658;9.272;2023-03-19T08:14:54;15.10;99.90
41168;DHT22;26906;45.658;9.272;2023-03-19T08:17:20;14.90;99.90
41168;DHT22;26906;45.658;9.272;2023-03-19T08:19:46;15.20;99.90
41168;DHT22;26906;45.658;9.272;2023-03-19T08:22:12;15.40;99.90
41168;DHT22;26906;45.658;9.272;2023-03-19T08:24:40;15.60;99.90
41168;DHT22;26906;45.658;9.272;2023-03-19T08:27:06;15.70;99.90
41168;DHT22;26906;45.658;9.272;2023-03-19T08:29:32;15.70;99.90
41168;DHT22;26906;45.658;9.272;2023-03-19T08:31:58;16.00;99.90
41168;DHT22;26906;45.658;9.272;2023-03-19T08:34:25;16.10;99.90
41168;DHT22;26906;45.658;9.272;2023-03-19T08:36:51;16.20;99.90
41168;DHT22;26906;45.658;9.272;2023-03-19T08:39:17;16.10;99.90
41168;DHT22;26906;45.658;9.272;2023-03-19T08:41:42;16.10;99.90
41168;DHT22;26906;45.658;9.272;2023-03-19T08:44:08;16.10;99.90
41168;DHT22;26906;45.658;9.272;2023-03-19T08:46:34;15.80;99.90
41168;DHT22;26906;45.658;9.272;2023-03-19T08:49:00;15.90;99.90
41168;DHT22;26906;45.658;9.272;2023-03-19T08:51:26;16.10;99.90
41168;DHT22;26906;45.658;9.272;2023-03-19T08:53:53;16.00;99.90
41168;DHT22;26906;45.658;9.272;2023-03-19T08:56:18;16.10;99.90
41168;DHT22;26906;45.658;9.272;2023-03-19T08:58:44;16.30;99.90
41168;DHT22;26906;45.658;9.272;2023-03-19T09:01:12;16.30;99.90
41168;DHT22;26906;45.658;9.272;2023-03-19T09:03:40;16.40;99.90
41168;DHT22;26906;45.658;9.272;2023-03-19T09:06:08;16.40;99.90
41168;DHT22;26906;45.658;9.272;2023-03-19T09:08:34;16.30;99.90
41168;DHT22;26906;45.658;9.272;2023-03-19T09:11:01;16.40;99.90
41168;DHT22;26906;45.658;9.272;2023-03-19T09:13:26;16.50;99.90
41168;DHT22;26906;45.658;9.272;2023-03-19T09:15:52;16.50;99.90
41168;DHT22;26906;45.658;9.272;2023-03-19T09:18:18;16.70;99.90
41168;DHT22;26906;45.658;9.272;2023-03-19T09:20:50;16.90;99.90
41168;DHT22;26906;45.658;9.272;2023-03-19T09:23:16;17.10;99.90
41168;DHT22;26906;45.658;9.272;2023-03-19T09:25:45;17.10;99.90
41168;DHT22;26906;45.658;9.272;2023-03-19T09:28:11;17.30;99.90
41168;DHT22;26906;45.658;9.272;2023-03-19T09:30:37;17.40;99.90
41168;DHT22;26906;45.658;9.272;2023-03-19T09:33:04;17.20;99.90
41168;DHT22;26906;45.658;9.272;2023-03-19T09:35:31;17.10;99.90
41168;DHT22;26906;45.658;9.272;2023-03-19T09:37:58;17.20;99.90
41168;DHT22;26906;45.658;9.272;2023-03-19T09:40:40;17.00;99.90
41168;DHT22;26906;45.658;9.272;2023-03-19T09:46:03;17.10;99.90
41168;DHT22;26906;45.658;9.272;2023-03-19T09:48:38;17.40;99.90
41168;DHT22;26906;45.658;9.272;2023-03-19T09:51:07;17.50;99.90
41168;DHT22;26906;45.658;9.272;2023-03-19T09:53:48;17.60;99.90
41168;DHT22;26906;45.658;9.272;2023-03-19T09:56:16;17.70;99.90
41168;DHT22;26906;45.658;9.272;2023-03-19T09:58:44;17.60;99.90
41168;DHT22;26906;45.658;9.272;2023-03-19T10:01:35;17.90;99.90
41168;DHT22;26906;45.658;9.272;2023-03-19T10:06:34;18.30;99.90
41168;DHT22;26906;45.658;9.272;2023-03-19T10:09:24;18.60;99.90
41168;DHT22;26906;45.658;9.272;2023-03-19T10:17:34;18.40;99.90
41168;DHT22;26906;45.658;9.272;2023-03-19T10:22:41;18.20;99.90
41168;DHT22;26906;45.658;9.272;2023-03-19T10:25:19;18.40;99.90
41168;DHT22;26906;45.658;9.272;2023-03-19T10:27:52;18.80;99.90
41168;DHT22;26906;45.658;9.272;2023-03-19T10:30:20;18.90;99.90
41168;DHT22;26906;45.658;9.272;2023-03-19T10:32:53;18.80;99.90
41168;DHT22;26906;45.658;9.272;2023-03-19T10:35:44;18.60;99.90
41168;DHT22;26906;45.658;9.272;2023-03-19T10:38:25;18.50;99.90
41168;DHT22;26906;45.658;9.272;2023-03-19T10:43:57;18.40;99.90
41168;DHT22;26906;45.658;9.272;2023-03-19T10:46:25;18.50;99.90
41168;DHT22;26906;45.658;9.272;2023-03-19T10:48:56;18.70;99.90
41168;DHT22;26906;45.658;9.272;2023-03-19T10:51:25;18.50;99.90
41168;DHT22;26906;45.658;9.272;2023-03-19T10:53:54;18.70;99.90
41168;DHT22;26906;45.658;9.272;2023-03-19T10:56:26;18.80;99.90
41168;DHT22;26906;45.658;9.272;2023-03-19T10:59:05;18.80;99.90
41168;DHT22;26906;45.658;9.272;2023-03-19T11:01:38;18.80;99.90
41168;DHT22;26906;45.658;9.272;2023-03-19T11:04:30;18.80;99.90
41168;DHT22;26906;45.658;9.272;2023-03-19T11:07:11;18.90;99.90
41168;DHT22;26906;45.658;9.272;2023-03-19T11:09:46;19.00;99.90
41168;DHT22;26906;45.658;9.272;2023-03-19T11:12:17;18.90;99.90
41168;DHT22;26906;45.658;9.272;2023-03-19T11:14:57;18.90;99.90
41168;DHT22;26906;45.658;9.272;2023-03-19T11:17:34;19.00;99.90
41168;DHT22;26906;45.658;9.272;2023-03-19T11:20:22;18.90;99.90
41168;DHT22;26906;45.658;9.272;2023-03-19T11:22:48;18.80;99.90
41168;DHT22;26906;45.658;9.272;2023-03-19T11:25:27;18.90;99.90
41168;DHT22;26906;45.658;9.272;2023-03-19T11:30:30;19.50;99.90
41168;DHT22;26906;45.658;9.272;2023-03-19T11:33:09;19.60;99.90
41168;DHT22;26906;45.658;9.272;2023-03-19T11:35:47;19.70;99.90
41168;DHT22;26906;45.658;9.272;2023-03-19T11:44:15;19.80;99.90
41168;DHT22;26906;45.658;9.272;2023-03-19T11:52:15;20.50;99.90
41168;DHT22;26906;45.658;9.272;2023-03-19T12:06:27;19.60;99.90
41168;DHT22;26906;45.658;9.272;2023-03-19T12:09:02;19.60;99.90
41168;DHT22;26906;45.658;9.272;2023-03-19T12:14:44;19.90;99.90
41168;DHT22;26906;45.658;9.272;2023-03-19T12:17:45;20.00;99.90
41168;DHT22;26906;45.658;9.272;2023-03-19T12:23:17;20.20;99.90
41168;DHT22;26906;45.658;9.272;2023-03-19T12:26:16;20.20;99.90
41168;DHT22;26906;45.658;9.272;2023-03-19T12:31:53;20.10;99.90
41168;DHT22;26906;45.658;9.272;2023-03-19T12:36:57;20.40;99.90
41168;DHT22;26906;45.658;9.272;2023-03-19T12:39:34;20.60;99.90
41168;DHT22;26906;45.658;9.272;2023-03-19T12:42:05;20.60;99.90
41168;DHT22;26906;45.658;9.272;2023-03-19T12:44:39;20.70;99.90
41168;DHT22;26906;45.658;9.272;2023-03-19T12:47:15;20.60;99.90
41168;DHT22;26906;45.658;9.272;2023-03-19T12:50:02;20.60;99.90
41168;DHT22;26906;45.658;9.272;2023-03-19T12:52:40;20.80;99.90
41168;DHT22;26906;45.658;9.272;2023-03-19T12:55:26;20.80;99.90
41168;DHT22;26906;45.658;9.272;2023-03-19T13:00:48;20.70;99.90
41168;DHT22;26906;45.658;9.272;2023-03-19T13:03:27;20.40;99.90
41168;DHT22;26906;45.658;9.272;2023-03-19T13:08:46;20.40;99.90
41168;DHT22;26906;45.658;9.272;2023-03-19T13:11:52;20.30;99.90
41168;DHT22;26906;45.658;9.272;2023-03-19T13:17:13;20.20;99.90
41168;DHT22;26906;45.658;9.272;2023-03-19T13:19:45;20.20;99.90
41168;DHT22;26906;45.658;9.272;2023-03-19T13:22:16;20.10;99.90
41168;DHT22;26906;45.658;9.272;2023-03-19T13:24:45;20.00;99.90
41168;DHT22;26906;45.658;9.272;2023-03-19T13:27:18;19.90;99.90
41168;DHT22;26906;45.658;9.272;2023-03-19T13:37:43;19.70;99.90
41168;DHT22;26906;45.658;9.272;2023-03-19T13:40:36;19.80;99.90
41168;DHT22;26906;45.658;9.272;2023-03-19T13:43:02;19.70;99.90
41168;DHT22;26906;45.658;9.272;2023-03-19T13:45:35;19.50;99.90
41168;DHT22;26906;45.658;9.272;2023-03-19T13:56:27;19.50;99.90
41168;DHT22;26906;45.658;9.272;2023-03-19T13:59:21;19.50;99.90
41168;DHT22;26906;45.658;9.272;2023-03-19T14:01:48;19.50;99.90
41168;DHT22;26906;45.658;9.272;2023-03-19T14:04:18;19.40;99.90
41168;DHT22;26906;45.658;9.272;2023-03-19T14:06:50;19.40;99.90
41168;DHT22;26906;45.658;9.272;2023-03-19T14:14:54;19.30;99.90
41168;DHT22;26906;45.658;9.272;2023-03-19T14:17:50;19.40;99.90
41168;DHT22;26906;45.658;9.272;2023-03-19T14:20:22;19.40;99.90
41168;DHT22;26906;45.658;9.272;2023-03-19T14:31:02;19.30;99.90
41168;DHT22;26906;45.658;9.272;2023-03-19T14:36:02;19.20;99.90
41168;DHT22;26906;45.658;9.272;2023-03-19T14:38:43;19.20;99.90
41168;DHT22;26906;45.658;9.272;2023-03-19T14:41:16;19.10;99.90
41168;DHT22;26906;45.658;9.272;2023-03-19T14:47:40;19.00;99.90
41168;DHT22;26906;45.658;9.272;2023-03-19T14:52:15;18.80;99.90
41168;DHT22;26906;45.658;9.272;2023-03-19T14:55:09;18.80;99.90
41168;DHT22;26906;45.658;9.272;2023-03-19T14:57:35;18.70;99.90
41168;DHT22;26906;45.658;9.272;2023-03-19T15:00:04;18.60;99.90
41168;DHT22;26906;45.658;9.272;2023-03-19T15:02:55;18.70;99.90
41168;DHT22;26906;45.658;9.272;2023-03-19T15:05:24;18.70;99.90
41168;DHT22;26906;45.658;9.272;2023-03-19T15:08:04;18.70;99.90
41168;DHT22;26906;45.658;9.272;2023-03-19T15:10:43;18.70;99.90
41168;DHT22;26906;45.658;9.272;2023-03-19T15:18:21;18.80;99.90
41168;DHT22;26906;45.658;9.272;2023-03-19T15:20:53;18.80;99.90
41168;DHT22;26906;45.658;9.272;2023-03-19T15:23:24;18.70;99.90
41168;DHT22;26906;45.658;9.272;2023-03-19T15:25:53;18.60;99.90
41168;DHT22;26906;45.658;9.272;2023-03-19T15:28:27;18.40;99.90
41168;DHT22;26906;45.658;9.272;2023-03-19T15:30:57;18.40;99.90
41168;DHT22;26906;45.658;9.272;2023-03-19T15:33:33;18.30;99.90
41168;DHT22;26906;45.658;9.272;2023-03-19T15:36:07;18.30;99.90
41168;DHT22;26906;45.658;9.272;2023-03-19T15:41:09;18.00;99.90
41168;DHT22;26906;45.658;9.272;2023-03-19T15:43:38;18.00;99.90
41168;DHT22;26906;45.658;9.272;2023-03-19T15:46:14;18.00;99.90
41168;DHT22;26906;45.658;9.272;2023-03-19T15:49:10;18.00;99.90
41168;DHT22;26906;45.658;9.272;2023-03-19T15:51:39;18.10;99.90
41168;DHT22;26906;45.658;9.272;2023-03-19T15:54:05;18.00;99.90
41168;DHT22;26906;45.658;9.272;2023-03-19T15:56:31;18.10;99.90
41168;DHT22;26906;45.658;9.272;2023-03-19T15:58:58;18.10;99.90
41168;DHT22;26906;45.658;9.272;2023-03-19T16:01:25;18.10;99.90
41168;DHT22;26906;45.658;9.272;2023-03-19T16:06:24;18.10;99.90
41168;DHT22;26906;45.658;9.272;2023-03-19T16:08:52;18.10;99.90
41168;DHT22;26906;45.658;9.272;2023-03-19T16:16:47;17.90;99.90
41168;DHT22;26906;45.658;9.272;2023-03-19T16:19:31;17.90;99.90
41168;DHT22;26906;45.658;9.272;2023-03-19T16:21:58;17.90;99.90
41168;DHT22;26906;45.658;9.272;2023-03-19T16:24:30;18.00;99.90
41168;DHT22;26906;45.658;9.272;2023-03-19T16:27:08;18.00;99.90
41168;DHT22;26906;45.658;9.272;2023-03-19T16:29:38;18.10;99.90
41168;DHT22;26906;45.658;9.272;2023-03-19T16:34:49;18.10;99.90
41168;DHT22;26906;45.658;9.272;2023-03-19T16:37:54;18.10;99.90
41168;DHT22;26906;45.658;9.272;2023-03-19T16:40:40;18.10;99.90
41168;DHT22;26906;45.658;9.272;2023-03-19T16:43:13;18.10;99.90
41168;DHT22;26906;45.658;9.272;2023-03-19T16:45:39;17.90;99.90
41168;DHT22;26906;45.658;9.272;2023-03-19T16:48:07;18.00;99.90
41168;DHT22;26906;45.658;9.272;2023-03-19T16:50:38;18.00;99.90
41168;DHT22;26906;45.658;9.272;2023-03-19T16:53:21;17.90;99.90
41168;DHT22;26906;45.658;9.272;2023-03-19T16:55:47;17.80;99.90
41168;DHT22;26906;45.658;9.272;2023-03-19T16:58:18;17.80;99.90
41168;DHT22;26906;45.658;9.272;2023-03-19T17:00:45;17.80;99.90
41168;DHT22;26906;45.658;9.272;2023-03-19T17:03:13;17.70;99.90
41168;DHT22;26906;45.658;9.272;2023-03-19T17:05:39;17.60;99.90
41168;DHT22;26906;45.658;9.272;2023-03-19T17:08:05;17.50;99.90
41168;DHT22;26906;45.658;9.272;2023-03-19T17:10:32;17.40;99.90
41168;DHT22;26906;45.658;9.272;2023-03-19T17:12:59;17.40;99.90
41168;DHT22;26906;45.658;9.272;2023-03-19T17:15:37;17.30;99.90
41168;DHT22;26906;45.658;9.272;2023-03-19T17:18:17;17.20;99.90
41168;DHT22;26906;45.658;9.272;2023-03-19T17:23:22;17.10;99.90
41168;DHT22;26906;45.658;9.272;2023-03-19T17:25:52;17.00;99.90
41168;DHT22;26906;45.658;9.272;2023-03-19T17:28:19;16.90;99.90
41168;DHT22;26906;45.658;9.272;2023-03-19T17:30:46;16.90;99.90
41168;DHT22;26906;45.658;9.272;2023-03-19T17:33:25;16.80;99.90
41168;DHT22;26906;45.658;9.272;2023-03-19T17:35:52;16.70;99.90
41168;DHT22;26906;45.658;9.272;2023-03-19T17:38:20;16.70;99.90
41168;DHT22;26906;45.658;9.272;2023-03-19T17:40:46;16.50;99.90
41168;DHT22;26906;45.658;9.272;2023-03-19T17:43:13;16.40;99.90
41168;DHT22;26906;45.658;9.272;2023-03-19T17:45:43;16.40;99.90
41168;DHT22;26906;45.658;9.272;2023-03-19T17:48:29;16.40;99.90
41168;DHT22;26906;45.658;9.272;2023-03-19T17:50:59;16.30;99.90
41168;DHT22;26906;45.658;9.272;2023-03-19T17:53:25;16.30;99.90
41168;DHT22;26906;45.658;9.272;2023-03-19T17:55:51;16.20;99.90
41168;DHT22;26906;45.658;9.272;2023-03-19T17:58:20;16.10;99.90
41168;DHT22;26906;45.658;9.272;2023-03-19T18:00:48;16.00;99.90
41168;DHT22;26906;45.658;9.272;2023-03-19T18:03:17;16.00;99.90
41168;DHT22;26906;45.658;9.272;2023-03-19T18:05:43;16.00;99.90
41168;DHT22;26906;45.658;9.272;2023-03-19T18:08:14;15.90;99.90
41168;DHT22;26906;45.658;9.272;2023-03-19T18:10:41;15.80;99.90
41168;DHT22;26906;45.658;9.272;2023-03-19T18:13:07;15.80;99.90
41168;DHT22;26906;45.658;9.272;2023-03-19T18:15:33;15.80;99.90
41168;DHT22;26906;45.658;9.272;2023-03-19T18:18:02;15.70;99.90
41168;DHT22;26906;45.658;9.272;2023-03-19T18:20:32;15.70;99.90
41168;DHT22;26906;45.658;9.272;2023-03-19T18:22:59;15.60;99.90
41168;DHT22;26906;45.658;9.272;2023-03-19T18:25:26;15.50;99.90
41168;DHT22;26906;45.658;9.272;2023-03-19T18:27:53;15.50;99.90
41168;DHT22;26906;45.658;9.272;2023-03-19T18:30:21;15.50;99.90
41168;DHT22;26906;45.658;9.272;2023-03-19T18:32:51;15.40;99.90
41168;DHT22;26906;45.658;9.272;2023-03-19T18:35:23;15.40;99.90
41168;DHT22;26906;45.658;9.272;2023-03-19T18:37:52;15.30;99.90
41168;DHT22;26906;45.658;9.272;2023-03-19T18:40:21;15.40;99.90
41168;DHT22;26906;45.658;9.272;2023-03-19T18:42:47;15.30;99.90
41168;DHT22;26906;45.658;9.272;2023-03-19T18:45:14;15.30;99.90
41168;DHT22;26906;45.658;9.272;2023-03-19T18:47:42;15.30;99.90
41168;DHT22;26906;45.658;9.272;2023-03-19T18:50:23;15.40;99.90
41168;DHT22;26906;45.658;9.272;2023-03-19T18:52:51;15.40;99.90
41168;DHT22;26906;45.658;9.272;2023-03-19T18:55:18;15.30;99.90
41168;DHT22;26906;45.658;9.272;2023-03-19T18:57:50;15.20;99.90
41168;DHT22;26906;45.658;9.272;2023-03-19T19:00:26;15.10;99.90
41168;DHT22;26906;45.658;9.272;2023-03-19T19:02:54;15.20;99.90
41168;DHT22;26906;45.658;9.272;2023-03-19T19:05:24;15.30;99.90
41168;DHT22;26906;45.658;9.272;2023-03-19T19:07:53;15.30;99.90
41168;DHT22;26906;45.658;9.272;2023-03-19T19:10:19;15.20;99.90
41168;DHT22;26906;45.658;9.272;2023-03-19T19:12:46;15.00;99.90
41168;DHT22;26906;45.658;9.272;2023-03-19T19:15:32;15.00;99.90
41168;DHT22;26906;45.658;9.272;2023-03-19T19:17:59;14.80;99.90
41168;DHT22;26906;45.658;9.272;2023-03-19T19:20:28;14.80;99.90
41168;DHT22;26906;45.658;9.272;2023-03-19T19:22:54;14.80;99.90
41168;DHT22;26906;45.658;9.272;2023-03-19T19:25:26;14.80;99.90
41168;DHT22;26906;45.658;9.272;2023-03-19T19:27:57;14.80;99.90
41168;DHT22;26906;45.658;9.272;2023-03-19T19:30:23;14.70;99.90
41168;DHT22;26906;45.658;9.272;2023-03-19T19:32:49;14.60;99.90
41168;DHT22;26906;45.658;9.272;2023-03-19T19:35:22;14.60;99.90
41168;DHT22;26906;45.658;9.272;2023-03-19T19:37:47;14.60;99.90
41168;DHT22;26906;45.658;9.272;2023-03-19T19:40:28;14.60;99.90
41168;DHT22;26906;45.658;9.272;2023-03-19T19:42:55;14.60;99.90
41168;DHT22;26906;45.658;9.272;2023-03-19T19:45:28;14.60;99.90
41168;DHT22;26906;45.658;9.272;2023-03-19T19:47:55;14.50;99.90
41168;DHT22;26906;45.658;9.272;2023-03-19T19:50:21;14.50;99.90
41168;DHT22;26906;45.658;9.272;2023-03-19T19:52:50;14.50;99.90
41168;DHT22;26906;45.658;9.272;2023-03-19T19:55:17;14.50;99.90
41168;DHT22;26906;45.658;9.272;2023-03-19T19:57:43;14.50;99.90
41168;DHT22;26906;45.658;9.272;2023-03-19T20:02:48;14.60;99.90
41168;DHT22;26906;45.658;9.272;2023-03-19T20:05:16;14.50;99.90
41168;DHT22;26906;45.658;9.272;2023-03-19T20:07:43;14.50;99.90
41168;DHT22;26906;45.658;9.272;2023-03-19T20:10:09;14.50;99.90
41168;DHT22;26906;45.658;9.272;2023-03-19T20:12:35;14.60;99.90
41168;DHT22;26906;45.658;9.272;2023-03-19T20:15:01;14.60;99.90
41168;DHT22;26906;45.658;9.272;2023-03-19T20:17:27;14.50;99.90
41168;DHT22;26906;45.658;9.272;2023-03-19T20:19:53;14.50;99.90
41168;DHT22;26906;45.658;9.272;2023-03-19T20:22:18;14.60;99.90
41168;DHT22;26906;45.658;9.272;2023-03-19T20:24:47;14.50;99.90
41168;DHT22;26906;45.658;9.272;2023-03-19T20:27:19;14.50;99.90
41168;DHT22;26906;45.658;9.272;2023-03-19T20:29:46;14.60;99.90
41168;DHT22;26906;45.658;9.272;2023-03-19T20:32:35;14.70;99.90
41168;DHT22;26906;45.658;9.272;2023-03-19T20:35:03;14.60;99.90
41168;DHT22;26906;45.658;9.272;2023-03-19T20:37:29;14.50;99.90
41168;DHT22;26906;45.658;9.272;2023-03-19T20:39:56;14.30;99.90
41168;DHT22;26906;45.658;9.272;2023-03-19T20:42:23;14.10;99.90
41168;DHT22;26906;45.658;9.272;2023-03-19T20:44:51;14.20;99.90
41168;DHT22;26906;45.658;9.272;2023-03-19T20:47:19;14.20;99.90
41168;DHT22;26906;45.658;9.272;2023-03-19T20:49:48;14.20;99.90
41168;DHT22;26906;45.658;9.272;2023-03-19T20:52:14;14.10;99.90
41168;DHT22;26906;45.658;9.272;2023-03-19T20:54:41;14.10;99.90
41168;DHT22;26906;45.658;9.272;2023-03-19T20:57:15;14.10;99.90
41168;DHT22;26906;45.658;9.272;2023-03-19T20:59:44;14.20;99.90
41168;DHT22;26906;45.658;9.272;2023-03-19T21:02:21;14.20;99.90
41168;DHT22;26906;45.658;9.272;2023-03-19T21:04:48;14.20;99.90
41168;DHT22;26906;45.658;9.272;2023-03-19T21:07:27;14.20;99.90
41168;DHT22;26906;45.658;9.272;2023-03-19T21:09:55;14.20;99.90
41168;DHT22;26906;45.658;9.272;2023-03-19T21:12:29;14.10;99.90
41168;DHT22;26906;45.658;9.272;2023-03-19T21:14:59;14.00;99.90
41168;DHT22;26906;45.658;9.272;2023-03-19T21:17:26;14.00;99.90
41168;DHT22;26906;45.658;9.272;2023-03-19T21:19:53;13.90;99.90
41168;DHT22;26906;45.658;9.272;2023-03-19T21:22:27;13.80;99.90
41168;DHT22;26906;45.658;9.272;2023-03-19T21:25:05;13.90;99.90
41168;DHT22;26906;45.658;9.272;2023-03-19T21:27:34;13.90;99.90
